Time;durP1;ratioP1;P1;durP2;ratioP2;P2;SDS_P1;SDS_P2;PMS_P1;PMS_P2;Temp;Humidity;BMP_temperature;BMP_pressure;BME280_temperature;BME280_humidity;BME280_pressure;Samples;Min_cycle;Max_cycle;Signal;HPM_P1;HPM_P2
2021/03/06 00:00:23;;;;;;;50.60;22.30;;;;;;;0.98;59.36;101575.81;4859341;28;96906;-77
2021/03/06 00:02:52;;;;;;;48.77;21.57;;;;;;;0.99;59.90;101575.88;4844235;28;101509;-77
2021/03/06 00:05:20;;;;;;;43.00;19.47;;;;;;;0.98;59.69;101583.59;4843646;28;101848;-81
2021/03/06 00:07:46;;;;;;;51.63;20.87;;;;;;;0.95;59.57;101586.09;4832970;29;96837;-78
2021/03/06 00:10:12;;;;;;;42.67;20.00;;;;;;;0.88;60.00;101583.34;4857683;28;97041;-77
2021/03/06 00:12:43;;;;;;;40.17;18.60;;;;;;;0.86;59.84;101590.19;4883102;28;97704;-77
2021/03/06 00:15:11;;;;;;;42.90;18.80;;;;;;;0.85;60.06;101585.00;4874747;28;97929;-79
2021/03/06 00:17:37;;;;;;;41.77;18.73;;;;;;;0.89;59.90;101585.09;4859004;28;96802;-78
2021/03/06 00:20:04;;;;;;;37.73;17.83;;;;;;;0.87;59.61;101586.78;4865106;28;97986;-77
2021/03/06 00:22:30;;;;;;;38.00;17.87;;;;;;;0.86;59.45;101599.66;4861949;28;101345;-79
2021/03/06 00:24:56;;;;;;;42.30;18.53;;;;;;;0.83;59.33;101591.81;4862961;28;101799;-79
2021/03/06 00:27:22;;;;;;;41.93;18.13;;;;;;;0.83;59.46;101599.59;4893796;28;96706;-77
2021/03/06 00:29:47;;;;;;;40.97;18.67;;;;;;;0.80;59.66;101600.38;4878514;28;96873;-77
2021/03/06 00:32:13;;;;;;;38.57;18.23;;;;;;;0.79;59.39;101598.63;4877576;28;97939;-77
2021/03/06 00:34:38;;;;;;;46.23;20.00;;;;;;;0.87;59.31;101602.31;4859478;28;99083;-77
2021/03/06 00:37:04;;;;;;;43.63;20.70;;;;;;;0.82;59.25;101595.25;4843911;28;97144;-77
2021/03/06 00:39:29;;;;;;;43.53;19.53;;;;;;;0.82;59.26;101596.13;4858905;28;97134;-78
2021/03/06 00:41:55;;;;;;;46.27;20.50;;;;;;;0.72;59.51;101599.28;4859477;28;97962;-77
2021/03/06 00:44:21;;;;;;;55.80;23.07;;;;;;;0.67;59.68;101595.72;4880571;28;98695;-77
2021/03/06 00:46:46;;;;;;;49.67;20.90;;;;;;;0.64;59.32;101605.97;4878792;28;97052;-76
2021/03/06 00:49:22;;;;;;;55.63;23.07;;;;;;;0.59;59.58;101598.09;4878563;28;97340;-78
2021/03/06 00:51:48;;;;;;;58.07;22.13;;;;;;;0.62;59.42;101599.91;4877512;28;101055;-77
2021/03/06 00:54:18;;;;;;;47.97;20.37;;;;;;;0.67;59.33;101599.19;4866244;28;101378;-80
2021/03/06 00:56:45;;;;;;;51.40;19.80;;;;;;;0.74;58.69;101600.22;4877196;28;98049;-78
2021/03/06 00:59:12;;;;;;;45.87;20.00;;;;;;;0.77;58.41;101587.38;4865483;28;97094;-78
2021/03/06 01:01:38;;;;;;;46.90;19.83;;;;;;;0.72;58.54;101595.84;4875495;28;101622;-79
2021/03/06 01:04:04;;;;;;;39.13;19.03;;;;;;;0.65;58.58;101592.22;4877728;28;101714;-79
2021/03/06 01:06:29;;;;;;;40.87;19.03;;;;;;;0.64;58.42;101586.19;4861801;28;97434;-77
2021/03/06 01:08:55;;;;;;;41.03;18.10;;;;;;;0.57;58.85;101586.84;4862553;28;96868;-79
2021/03/06 01:11:21;;;;;;;41.83;19.53;;;;;;;0.58;58.76;101582.53;4878772;28;98049;-77
2021/03/06 01:13:47;;;;;;;41.53;18.83;;;;;;;0.55;58.88;101591.09;4859295;28;97897;-78
2021/03/06 01:16:12;;;;;;;43.00;17.97;;;;;;;0.46;59.06;101593.41;4874709;28;97067;-78
2021/03/06 01:18:38;;;;;;;38.13;16.90;;;;;;;0.52;58.78;101587.53;4842723;28;97069;-79
2021/03/06 01:21:04;;;;;;;42.63;18.27;;;;;;;0.55;58.60;101585.03;4858447;28;97377;-76
2021/03/06 01:23:29;;;;;;;39.97;17.87;;;;;;;0.54;58.40;101583.31;4858050;28;100872;-77
2021/03/06 01:25:55;;;;;;;37.57;17.40;;;;;;;0.52;58.58;101579.78;4871026;28;97217;-76
2021/03/06 01:28:20;;;;;;;36.33;17.40;;;;;;;0.50;58.67;101584.94;4870806;28;97419;-80
2021/03/06 01:30:46;;;;;;;36.63;18.47;;;;;;;0.51;58.89;101573.75;4874165;28;97449;-79
2021/03/06 01:33:12;;;;;;;45.57;18.50;;;;;;;0.50;59.12;101579.78;4864782;28;98007;-77
2021/03/06 01:35:37;;;;;;;39.27;18.17;;;;;;;0.47;58.61;101579.69;4876734;28;96846;-78
2021/03/06 01:38:03;;;;;;;38.53;17.43;;;;;;;0.49;58.94;101580.59;4894569;28;96930;-79
2021/03/06 01:40:31;;;;;;;40.57;17.20;;;;;;;0.51;58.91;101585.81;4863900;28;101467;-77
2021/03/06 01:42:58;;;;;;;41.37;16.90;;;;;;;0.42;58.75;101595.06;4842840;28;101153;-78
2021/03/06 01:45:24;;;;;;;40.93;15.93;;;;;;;0.36;59.39;101588.84;4857523;28;96875;-80
2021/03/06 01:47:50;;;;;;;34.30;16.17;;;;;;;0.33;60.04;101578.44;4842818;28;96974;-79
2021/03/06 01:50:37;;;;;;;36.60;17.17;;;;;;;0.38;59.21;101582.91;4845486;29;101546;-77
2021/03/06 01:53:04;;;;;;;37.07;16.57;;;;;;;0.43;59.01;101586.44;4858435;28;101237;-77
2021/03/06 01:55:31;;;;;;;34.03;17.13;;;;;;;0.45;58.97;101582.22;4873621;28;97323;-79
2021/03/06 01:57:57;;;;;;;34.97;17.07;;;;;;;0.34;58.93;101577.59;4858572;28;96891;-78
2021/03/06 02:00:23;;;;;;;34.70;15.23;;;;;;;0.37;58.82;101582.84;4857130;28;101734;-79
2021/03/06 02:02:50;;;;;;;33.37;15.83;;;;;;;0.22;59.66;101580.72;4861836;28;101452;-80
2021/03/06 02:05:16;;;;;;;35.63;16.23;;;;;;;0.20;59.71;101566.88;4877372;28;96983;-79
2021/03/06 02:07:42;;;;;;;32.80;15.43;;;;;;;0.10;60.43;101576.06;4877261;28;97014;-78
2021/03/06 02:10:09;;;;;;;34.13;15.80;;;;;;;0.24;59.59;101571.31;4889403;28;98516;-77
2021/03/06 02:12:42;;;;;;;31.37;15.30;;;;;;;0.25;59.77;101574.75;4865762;28;101324;-79
2021/03/06 02:15:28;;;;;;;34.80;15.13;;;;;;;0.21;59.58;101582.41;4842306;28;96911;-77
2021/03/06 02:17:54;;;;;;;36.90;16.17;;;;;;;0.32;59.37;101587.00;4858238;28;97304;-79
2021/03/06 02:20:35;;;;;;;33.13;14.17;;;;;;;0.34;59.13;101583.63;4873391;28;97633;-80
2021/03/06 02:23:19;;;;;;;32.10;14.60;;;;;;;0.30;59.59;101579.22;4873744;28;101314;-80
2021/03/06 02:26:12;;;;;;;29.60;14.23;;;;;;;0.26;59.50;101585.13;4858089;28;97188;-78
2021/03/06 02:28:59;;;;;;;32.67;14.70;;;;;;;0.18;59.63;101582.34;4873521;28;97244;-76
2021/03/06 02:31:26;;;;;;;29.50;14.43;;;;;;;0.16;59.34;101585.69;4872234;28;101859;-79
2021/03/06 02:34:05;;;;;;;27.13;13.60;;;;;;;0.19;59.38;101580.63;4857857;28;100085;-77
2021/03/06 02:36:34;;;;;;;28.63;13.23;;;;;;;0.20;59.27;101578.09;4872788;28;97225;-77
2021/03/06 02:39:01;;;;;;;30.83;13.40;;;;;;;0.20;59.12;101572.94;4858284;28;97242;-77
2021/03/06 02:41:28;;;;;;;34.07;14.27;;;;;;;0.13;59.38;101581.31;4872747;28;97640;-79
2021/03/06 02:43:54;;;;;;;33.97;15.07;;;;;;;0.16;59.75;101575.38;4842007;28;101524;-76
2021/03/06 02:46:24;;;;;;;29.40;12.57;;;;;;;0.17;59.29;101572.81;4857858;28;96998;-76
2021/03/06 02:48:50;;;;;;;27.00;13.57;;;;;;;0.17;59.30;101587.44;4861385;28;97000;-79
2021/03/06 02:51:16;;;;;;;27.97;13.30;;;;;;;0.13;59.20;101586.47;4860741;28;98401;-77
2021/03/06 02:53:41;;;;;;;29.07;13.23;;;;;;;0.14;59.28;101585.63;4860295;28;101658;-78
2021/03/06 02:56:07;;;;;;;32.30;13.87;;;;;;;-0.08;59.91;101586.75;4861491;28;96680;-76
2021/03/06 02:58:57;;;;;;;33.27;14.63;;;;;;;-0.03;59.79;101581.69;4860463;28;96904;-77
2021/03/06 03:01:44;;;;;;;28.80;13.30;;;;;;;0.08;59.56;101579.44;4859472;28;98822;-82
2021/03/06 03:04:19;;;;;;;32.53;13.53;;;;;;;0.07;59.19;101583.72;4876449;28;101338;-76
2021/03/06 03:06:47;;;;;;;33.23;14.43;;;;;;;0.02;59.70;101589.59;4878745;28;97098;-76
2021/03/06 03:09:18;;;;;;;28.10;12.67;;;;;;;0.02;59.70;101585.28;4880184;28;96808;-76
2021/03/06 03:11:52;;;;;;;31.92;13.45;;;;;;;-0.03;59.79;101587.75;4866156;28;98109;-77
2021/03/06 03:14:22;;;;;;;29.33;14.20;;;;;;;-0.05;59.65;101593.72;4879192;28;100822;-77
2021/03/06 03:16:52;;;;;;;28.77;12.83;;;;;;;-0.01;59.89;101590.38;4873983;28;96755;-77
2021/03/06 03:19:46;;;;;;;31.93;14.77;;;;;;;0.03;59.47;101593.91;4861332;28;96984;-77
2021/03/06 03:22:15;;;;;;;27.13;13.33;;;;;;;0.04;59.45;101599.13;4863873;28;97561;-76
2021/03/06 03:24:42;;;;;;;28.80;14.77;;;;;;;0.06;59.75;101597.47;4859475;28;101442;-79
2021/03/06 03:27:09;;;;;;;36.10;13.77;;;;;;;0.02;59.39;101593.03;4875789;28;97215;-77
2021/03/06 03:29:38;;;;;;;28.60;13.37;;;;;;;0.03;59.73;101594.81;4860061;28;96908;-76
2021/03/06 03:32:05;;;;;;;32.47;14.90;;;;;;;0.01;59.20;101603.34;4875935;28;98179;-78
2021/03/06 03:34:33;;;;;;;30.43;14.47;;;;;;;0.04;59.41;101601.72;4875557;28;97926;-78
2021/03/06 03:36:59;;;;;;;29.43;13.63;;;;;;;0.01;59.58;101599.03;4865109;28;97186;-77
2021/03/06 03:39:25;;;;;;;31.73;14.43;;;;;;;-0.02;59.69;101604.13;4860956;28;96922;-80
2021/03/06 03:41:51;;;;;;;32.70;14.73;;;;;;;-0.01;59.89;101601.56;4867702;28;101375;-76
2021/03/06 03:44:17;;;;;;;30.17;14.73;;;;;;;0.02;59.55;101608.53;4860426;28;101165;-76
2021/03/06 03:46:43;;;;;;;36.60;13.73;;;;;;;0.02;59.40;101610.25;4859570;28;96731;-77
2021/03/06 03:49:14;;;;;;;34.83;14.90;;;;;;;-0.01;59.82;101614.47;4860440;28;97276;-78
2021/03/06 03:51:40;;;;;;;29.73;13.53;;;;;;;-0.03;59.56;101607.50;4858420;28;101305;-77
2021/03/06 03:54:06;;;;;;;32.50;13.87;;;;;;;-0.09;60.01;101607.34;4859913;28;97480;-78
2021/03/06 03:56:32;;;;;;;30.80;14.33;;;;;;;-0.18;60.42;101609.66;4875641;28;97423;-77
2021/03/06 03:58:57;;;;;;;28.87;15.03;;;;;;;-0.16;59.87;101611.44;4859589;28;97298;-77
2021/03/06 04:01:23;;;;;;;29.97;14.63;;;;;;;-0.14;59.64;101607.22;4859340;28;101629;-80
2021/03/06 04:03:49;;;;;;;26.30;12.90;;;;;;;-0.11;60.05;101615.06;4875029;28;98504;-77
2021/03/06 04:06:14;;;;;;;36.53;15.40;;;;;;;-0.13;60.08;101610.66;4876110;28;96933;-77
2021/03/06 04:08:40;;;;;;;27.93;13.87;;;;;;;-0.12;59.78;101621.03;4859832;28;97040;-76
2021/03/06 04:11:05;;;;;;;31.47;14.23;;;;;;;-0.23;60.16;101617.25;4859330;28;100914;-78
2021/03/06 04:13:31;;;;;;;32.90;14.60;;;;;;;-0.24;60.35;101611.19;4860244;28;97392;-78
2021/03/06 04:15:57;;;;;;;30.17;15.27;;;;;;;-0.13;59.73;101628.75;4843834;28;97160;-77
2021/03/06 04:18:22;;;;;;;29.37;14.40;;;;;;;-0.18;59.74;101618.25;4893639;28;96850;-76
2021/03/06 04:20:48;;;;;;;30.07;15.27;;;;;;;-0.24;59.92;101625.81;4893759;28;98771;-76
2021/03/06 04:23:13;;;;;;;33.90;16.53;;;;;;;-0.24;60.14;101626.69;4894428;28;101555;-77
2021/03/06 04:25:39;;;;;;;33.53;15.00;;;;;;;-0.24;60.21;101626.69;4862553;28;97069;-77
2021/03/06 04:28:05;;;;;;;33.73;15.97;;;;;;;-0.23;60.21;101622.44;4894917;28;96751;-77
2021/03/06 04:30:30;;;;;;;31.27;16.53;;;;;;;-0.26;60.00;101618.03;4877250;28;100704;-77
2021/03/06 04:32:56;;;;;;;36.97;17.13;;;;;;;-0.39;60.49;101628.81;4863043;28;101337;-76
2021/03/06 04:35:22;;;;;;;39.03;18.83;;;;;;;-0.36;60.92;101625.44;4878813;28;96995;-79
2021/03/06 04:37:47;;;;;;;43.53;21.60;;;;;;;-0.36;60.24;101630.59;4878208;28;97277;-77
2021/03/06 04:40:14;;;;;;;45.77;23.53;;;;;;;-0.39;60.74;101623.63;4861717;28;101898;-77
2021/03/06 04:42:40;;;;;;;43.50;24.77;;;;;;;-0.38;60.53;101629.66;4877444;28;101088;-78
2021/03/06 04:45:07;;;;;;;42.17;22.33;;;;;;;-0.41;60.83;101624.41;4878546;28;97214;-76
2021/03/06 04:47:33;;;;;;;41.87;23.53;;;;;;;-0.36;60.45;101630.59;4861811;28;96900;-78
2021/03/06 04:49:59;;;;;;;37.37;20.53;;;;;;;-0.33;60.26;101628.13;4878329;28;97527;-77
2021/03/06 04:52:24;;;;;;;33.77;19.57;;;;;;;-0.37;59.99;101616.84;4893878;28;97674;-81
2021/03/06 04:54:50;;;;;;;34.40;17.67;;;;;;;-0.40;60.07;101621.91;4877995;28;96629;-77
2021/03/06 04:57:16;;;;;;;37.30;17.83;;;;;;;-0.39;60.55;101630.50;4878446;28;96824;-78
2021/03/06 04:59:44;;;;;;;33.13;16.83;;;;;;;-0.40;60.16;101636.50;4860985;28;100261;-80
2021/03/06 05:02:10;;;;;;;34.53;16.17;;;;;;;-0.43;60.42;101626.97;4877901;28;100901;-78
2021/03/06 05:04:36;;;;;;;29.07;15.53;;;;;;;-0.42;60.58;101633.00;4893265;28;97155;-77
2021/03/06 05:07:02;;;;;;;31.13;15.03;;;;;;;-0.40;60.80;101631.34;4873831;28;97279;-78
2021/03/06 05:09:27;;;;;;;33.83;15.70;;;;;;;-0.41;60.74;101634.72;4857870;28;98027;-81
2021/03/06 05:11:53;;;;;;;31.13;15.37;;;;;;;-0.49;60.58;101630.22;4873965;28;101168;-77
2021/03/06 05:14:19;;;;;;;31.33;14.37;;;;;;;-0.49;61.01;101627.66;4859014;28;97571;-80
2021/03/06 05:16:45;;;;;;;28.13;14.43;;;;;;;-0.46;60.76;101629.44;4842566;28;97545;-76
2021/03/06 05:19:10;;;;;;;31.00;14.40;;;;;;;-0.48;60.55;101631.97;4858697;28;101192;-78
2021/03/06 05:21:36;;;;;;;38.77;17.97;;;;;;;-0.56;60.61;101632.53;4858385;28;97889;-77
2021/03/06 05:24:03;;;;;;;45.37;19.77;;;;;;;-0.58;61.05;101629.94;4848059;29;96968;-76
2021/03/06 05:26:29;;;;;;;38.53;18.37;;;;;;;-0.71;61.04;101628.66;4874372;28;97072;-79
2021/03/06 05:28:54;;;;;;;38.33;20.03;;;;;;;-0.74;61.50;101632.84;4874186;28;98245;-76
2021/03/06 05:31:20;;;;;;;40.33;20.13;;;;;;;-0.75;61.58;101629.38;4858033;28;100603;-78
2021/03/06 05:33:46;;;;;;;37.77;18.07;;;;;;;-0.62;61.07;101629.78;4858441;28;96668;-76
2021/03/06 05:36:11;;;;;;;32.90;17.43;;;;;;;-0.62;60.81;101624.63;4858787;28;96902;-77
2021/03/06 05:38:37;;;;;;;45.03;19.10;;;;;;;-0.60;61.02;101630.72;4857991;28;98076;-77
2021/03/06 05:41:02;;;;;;;39.53;19.50;;;;;;;-0.47;61.03;101635.41;4858249;28;101499;-80
2021/03/06 05:43:28;;;;;;;59.77;26.63;;;;;;;-0.41;60.62;101651.09;4858748;28;96764;-82
2021/03/06 05:45:54;;;;;;;64.90;30.20;;;;;;;-0.34;60.18;101645.31;4858755;28;97497;-77
2021/03/06 05:48:20;;;;;;;60.90;26.13;;;;;;;-0.34;60.16;101647.88;4858432;28;100522;-78
2021/03/06 05:50:47;;;;;;;51.63;23.70;;;;;;;-0.32;60.57;101643.66;4857674;28;98151;-77
2021/03/06 05:53:15;;;;;;;46.60;22.03;;;;;;;-0.28;60.30;101658.41;4869132;28;96915;-77
2021/03/06 05:55:42;;;;;;;43.10;17.87;;;;;;;-0.29;60.00;101656.66;4844170;28;98458;-77
2021/03/06 05:58:09;;;;;;;36.47;16.33;;;;;;;-0.33;60.11;101653.91;4842285;28;100713;-77
2021/03/06 06:00:35;;;;;;;34.67;16.30;;;;;;;-0.21;60.75;101668.91;4857359;28;97576;-83
2021/03/06 06:03:01;;;;;;;34.03;15.27;;;;;;;-0.24;59.76;101667.97;4858542;28;97202;-77
2021/03/06 06:05:27;;;;;;;28.33;12.33;;;;;;;-0.18;59.81;101666.44;4842592;28;96937;-80
2021/03/06 06:07:54;;;;;;;62.07;19.07;;;;;;;-0.03;59.75;101670.38;4842148;28;101945;-77
2021/03/06 06:10:20;;;;;;;93.37;29.87;;;;;;;0.16;59.31;101676.09;4868127;28;101370;-77
2021/03/06 06:12:46;;;;;;;86.40;26.93;;;;;;;0.67;58.59;101663.81;4862691;28;96768;-77
2021/03/06 06:15:12;;;;;;;91.40;27.67;;;;;;;1.23;57.51;101673.91;4871635;28;97314;-77
2021/03/06 06:17:38;;;;;;;96.20;30.47;;;;;;;1.68;56.39;101681.03;4856618;28;99885;-77
2021/03/06 06:20:05;;;;;;;86.83;28.13;;;;;;;1.97;55.61;101673.06;4873265;28;101492;-80
2021/03/06 06:22:30;;;;;;;68.40;23.20;;;;;;;2.25;55.55;101683.22;4860766;28;96835;-82
2021/03/06 06:24:56;;;;;;;31.40;15.63;;;;;;;2.63;54.49;101685.72;4845868;28;97758;-77
2021/03/06 06:27:22;;;;;;;29.57;13.60;;;;;;;3.05;53.09;101691.72;4877235;28;97770;-78
2021/03/06 06:29:48;;;;;;;26.23;11.80;;;;;;;3.49;52.34;101682.13;4876053;28;97441;-77
2021/03/06 06:32:16;;;;;;;26.40;12.13;;;;;;;3.82;51.92;101694.78;4861477;28;97200;-77
2021/03/06 06:34:43;;;;;;;29.10;12.67;;;;;;;4.28;50.73;101692.84;4861064;28;96883;-77
2021/03/06 06:37:11;;;;;;;30.33;12.53;;;;;;;4.65;49.84;101689.84;4845368;28;99566;-77
2021/03/06 06:39:37;;;;;;;31.30;12.33;;;;;;;5.02;49.40;101701.53;4859872;28;100519;-77
2021/03/06 06:42:03;;;;;;;28.97;12.53;;;;;;;5.31;48.87;101694.03;4877029;28;96991;-76
2021/03/06 06:44:30;;;;;;;28.00;12.63;;;;;;;5.51;48.64;101690.72;4860663;28;97112;-83
2021/03/06 06:46:56;;;;;;;33.67;13.50;;;;;;;5.93;47.22;101703.25;4860038;28;101498;-77
2021/03/06 06:49:23;;;;;;;27.23;11.50;;;;;;;5.99;47.06;101705.00;4880005;28;97960;-78
2021/03/06 06:52:00;;;;;;;26.27;11.30;;;;;;;6.24;46.29;101706.91;4860893;28;98042;-78
2021/03/06 06:54:27;;;;;;;33.40;11.60;;;;;;;6.89;44.98;101702.84;4877573;28;97262;-77
2021/03/06 06:57:13;;;;;;;20.40;10.10;;;;;;;7.29;44.20;101702.09;4860353;28;98465;-77
2021/03/06 06:59:52;;;;;;;18.93;9.20;;;;;;;7.46;43.69;101703.84;4875520;28;100828;-78
2021/03/06 07:02:18;;;;;;;18.67;7.87;;;;;;;7.93;43.01;101707.31;4861667;28;97011;-77
2021/03/06 07:05:01;;;;;;;14.80;7.73;;;;;;;8.46;41.57;101710.72;4860339;28;97205;-77
2021/03/06 07:07:39;;;;;;;12.57;6.90;;;;;;;8.84;41.29;101697.47;4860728;28;98428;-77
2021/03/06 07:10:11;;;;;;;12.25;6.50;;;;;;;9.29;40.66;101700.72;4860215;28;101631;-78
2021/03/06 07:12:39;;;;;;;14.57;6.93;;;;;;;9.97;39.45;101699.25;4872911;28;96764;-75
2021/03/06 07:15:19;;;;;;;10.23;6.18;;;;;;;10.83;37.84;101705.34;4876094;28;97111;-76
2021/03/06 07:17:47;;;;;;;11.38;5.60;;;;;;;11.50;36.67;101704.38;4875594;28;98211;-76
2021/03/06 07:20:28;;;;;;;10.85;5.30;;;;;;;14.78;32.58;101709.34;4860228;28;97648;-75
2021/03/06 07:22:56;;;;;;;10.10;4.82;;;;;;;17.16;28.75;101699.41;4860300;28;96810;-75
2021/03/06 07:25:22;;;;;;;10.90;5.10;;;;;;;18.45;26.78;101696.59;4860489;28;96766;-75
2021/03/06 07:27:48;;;;;;;8.10;4.97;;;;;;;20.03;25.37;101698.78;4860348;28;100807;-76
2021/03/06 07:30:16;;;;;;;9.15;5.00;;;;;;;20.50;24.73;101704.25;4859561;28;101391;-77
2021/03/06 07:32:44;;;;;;;8.52;4.85;;;;;;;20.82;24.01;101692.81;4857946;28;97184;-76
2021/03/06 07:35:11;;;;;;;10.65;4.65;;;;;;;20.75;24.05;101695.81;4875344;28;97227;-76
2021/03/06 07:37:37;;;;;;;11.70;4.60;;;;;;;21.13;23.56;101700.84;4874098;28;97980;-76
2021/03/06 07:40:06;;;;;;;7.68;4.35;;;;;;;21.69;23.04;101701.19;4859369;28;100781;-76
2021/03/06 07:42:49;;;;;;;6.40;4.22;;;;;;;22.49;22.28;101691.91;4876881;28;96807;-81
2021/03/06 07:45:24;;;;;;;8.70;4.80;;;;;;;22.51;22.20;101689.97;4846908;28;97487;-77
2021/03/06 07:47:53;;;;;;;7.88;4.00;;;;;;;22.99;21.78;101692.38;4873533;28;98725;-77
2021/03/06 07:50:25;;;;;;;8.65;4.60;;;;;;;22.99;21.90;101703.94;4857286;28;99707;-77
2021/03/06 07:52:51;;;;;;;8.30;4.10;;;;;;;23.58;21.33;101700.09;4857938;28;96802;-77
2021/03/06 07:55:17;;;;;;;7.10;4.03;;;;;;;23.59;21.26;101696.44;4873445;28;97291;-77
2021/03/06 07:58:07;;;;;;;10.05;4.57;;;;;;;24.56;20.34;101696.03;4848293;29;101701;-77
2021/03/06 08:00:41;;;;;;;7.87;4.30;;;;;;;24.42;20.48;101691.63;4888057;28;101508;-78
2021/03/06 08:03:29;;;;;;;8.60;4.38;;;;;;;24.46;20.35;101690.44;4849267;28;97371;-76
2021/03/06 08:05:59;;;;;;;11.10;4.50;;;;;;;24.76;19.90;101689.25;4859806;28;97292;-77
2021/03/06 08:08:35;;;;;;;7.72;4.22;;;;;;;25.36;19.81;101693.78;4838203;28;103428;-77
2021/03/06 08:11:12;;;;;;;7.68;4.25;;;;;;;25.64;19.80;101686.31;4872691;28;99537;-77
2021/03/06 08:13:39;;;;;;;15.48;4.97;;;;;;;25.75;19.47;101686.38;4874994;28;96818;-78
2021/03/06 08:16:23;;;;;;;10.65;4.82;;;;;;;26.00;18.89;101687.19;4857731;28;97272;-78
2021/03/06 08:19:02;;;;;;;8.05;5.03;;;;;;;25.00;19.22;101697.34;4868440;28;98071;-78
2021/03/06 08:21:35;;;;;;;13.70;4.88;;;;;;;25.23;19.60;101685.78;4856778;28;101158;-78
2021/03/06 08:24:19;;;;;;;6.90;4.82;;;;;;;25.81;19.23;101688.56;4872060;28;96817;-77
2021/03/06 08:27:03;;;;;;;7.97;4.57;;;;;;;25.95;18.98;101680.34;4867039;28;97306;-81
2021/03/06 08:29:29;;;;;;;9.77;4.50;;;;;;;24.75;19.80;101693.72;4863892;28;98690;-78
2021/03/06 08:32:04;;;;;;;7.40;4.43;;;;;;;25.69;19.31;101682.31;4872119;28;101550;-79
2021/03/06 08:34:40;;;;;;;8.07;4.32;;;;;;;26.50;18.93;101691.31;4852894;28;96797;-80
2021/03/06 08:37:25;;;;;;;10.82;3.90;;;;;;;26.66;18.42;101682.00;4867004;28;96812;-72
2021/03/06 08:39:53;;;;;;;6.30;3.92;;;;;;;26.92;18.46;101685.25;4864321;28;102124;-70
2021/03/06 08:42:28;;;;;;;9.65;3.92;;;;;;;27.00;18.44;101677.41;4864592;28;101313;-71
2021/03/06 08:44:59;;;;;;;7.10;4.53;;;;;;;26.84;18.34;101683.19;4863981;28;97396;-73
2021/03/06 08:47:27;;;;;;;8.43;4.55;;;;;;;26.63;18.45;101680.41;4884136;28;98214;-73
2021/03/06 08:49:55;;;;;;;8.25;4.05;;;;;;;25.20;19.84;101680.63;4836849;29;101243;-71
2021/03/06 08:52:22;;;;;;;6.78;4.05;;;;;;;23.69;20.95;101689.50;4869222;28;100985;-73
2021/03/06 08:54:47;;;;;;;10.82;3.97;;;;;;;21.87;22.42;101689.41;4864727;28;96826;-71
2021/03/06 08:57:32;;;;;;;9.27;3.78;;;;;;;20.36;24.04;101698.81;4889733;28;97579;-72
2021/03/06 08:59:59;;;;;;;8.60;3.47;;;;;;;18.36;25.06;101696.16;4866375;28;98348;-75
2021/03/06 09:02:33;;;;;;;7.60;3.83;;;;;;;17.80;25.83;101709.19;4872792;28;97424;-72
2021/03/06 09:05:14;;;;;;;5.82;3.40;;;;;;;17.82;26.07;101698.50;4862139;28;98057;-73
2021/03/06 09:07:42;;;;;;;9.50;3.90;;;;;;;18.09;25.95;101702.63;4871094;28;97066;-74
2021/03/06 09:10:43;;;;;;;5.57;3.35;;;;;;;18.23;26.09;101707.31;4857475;28;98422;-73
2021/03/06 09:13:17;;;;;;;;;;;;;;;16.55;26.93;101696.44;4856733;28;101080;-73
2021/03/06 09:15:51;;;;;;;9.65;3.50;;;;;;;15.66;28.01;101701.31;4865090;28;97271;-73
2021/03/06 09:18:25;;;;;;;7.68;3.75;;;;;;;16.02;27.75;101708.00;4855122;28;96919;-72
2021/03/06 09:21:20;;;;;;;7.88;3.22;;;;;;;16.12;27.63;101705.06;4851348;28;101048;-72
2021/03/06 09:23:47;;;;;;;14.32;3.83;;;;;;;16.18;27.59;101703.06;4853597;28;99991;-73
2021/03/06 09:26:18;;;;;;;8.98;3.42;;;;;;;15.69;28.52;101690.66;4871288;28;97332;-72
2021/03/06 09:28:51;;;;;;;5.72;3.22;;;;;;;15.81;28.50;101699.03;4867649;28;97524;-77
2021/03/06 09:31:24;;;;;;;8.07;3.35;;;;;;;16.14;31.38;101704.06;4854740;28;100243;-76
2021/03/06 09:33:50;;;;;;;6.57;3.70;;;;;;;15.84;28.00;101696.28;4855062;28;101607;-74
2021/03/06 09:36:21;;;;;;;5.03;3.08;;;;;;;15.40;28.05;101703.00;4855476;28;96865;-76
2021/03/06 09:38:48;;;;;;;7.03;3.07;;;;;;;14.91;29.31;101708.03;4855083;28;97443;-74
2021/03/06 09:41:16;;;;;;;9.25;3.17;;;;;;;14.46;28.74;101703.19;4855678;28;98530;-74
2021/03/06 09:43:44;;;;;;;7.25;3.00;;;;;;;14.73;28.97;101699.81;4855477;28;98185;-75
2021/03/06 09:46:25;;;;;;;6.28;3.80;;;;;;;15.15;29.31;101693.22;4851518;28;97429;-75
2021/03/06 09:48:53;;;;;;;8.07;2.78;;;;;;;14.77;28.73;101704.09;4873977;28;96983;-79
2021/03/06 09:51:20;;;;;;;7.07;3.17;;;;;;;14.43;31.18;101694.47;4844271;28;101723;-74
2021/03/06 09:53:59;;;;;;;9.20;3.20;;;;;;;14.89;31.08;101690.50;4902043;28;98914;-76
2021/03/06 09:56:26;;;;;;;5.95;3.30;;;;;;;15.31;29.45;101693.59;4860198;28;97310;-80
2021/03/06 09:59:05;;;;;;;5.50;3.25;;;;;;;14.91;29.38;101696.59;4861474;28;98518;-81
2021/03/06 10:01:34;;;;;;;10.32;2.97;;;;;;;14.99;28.90;101699.03;4855530;28;100983;-79
2021/03/06 10:04:11;;;;;;;5.47;3.22;;;;;;;15.26;28.40;101697.28;4854765;28;101037;-79
2021/03/06 10:06:39;;;;;;;5.95;3.17;;;;;;;14.93;28.30;101693.00;4855529;28;96760;-79
2021/03/06 10:09:07;;;;;;;12.75;3.80;;;;;;;14.45;29.68;101697.91;4871410;28;96965;-79
2021/03/06 10:11:38;;;;;;;9.02;3.35;;;;;;;15.11;29.09;101698.66;4867357;28;98641;-77
2021/03/06 10:14:05;;;;;;;8.27;3.42;;;;;;;14.75;29.74;101695.31;4877236;28;100937;-79
2021/03/06 10:16:50;;;;;;;8.27;4.18;;;;;;;14.45;29.74;101700.56;4869228;28;97077;-78
2021/03/06 10:19:16;;;;;;;7.32;3.70;;;;;;;14.23;29.00;101687.09;4851836;28;97381;-80
2021/03/06 10:21:42;;;;;;;5.28;2.60;;;;;;;13.85;29.08;101691.63;4855805;28;97709;-79
2021/03/06 10:24:12;;;;;;;8.70;3.25;;;;;;;13.62;29.60;101691.34;4852128;28;100862;-79
2021/03/06 10:26:38;;;;;;;6.05;2.60;;;;;;;13.35;29.52;101689.34;4884252;28;96886;-78
2021/03/06 10:29:23;;;;;;;8.32;2.78;;;;;;;13.44;30.22;101680.34;4862414;28;97439;-78
2021/03/06 10:31:57;;;;;;;6.07;2.50;;;;;;;13.24;29.79;101680.78;4846971;28;101426;-77
2021/03/06 10:34:33;;;;;;;5.38;2.70;;;;;;;12.77;30.40;101663.41;4850406;28;98738;-74
2021/03/06 10:37:06;;;;;;;8.45;3.03;;;;;;;12.60;31.40;101672.53;4835658;28;97913;-75
2021/03/06 10:39:32;;;;;;;7.80;3.75;;;;;;;12.58;30.96;101670.84;4851491;28;97223;-75
2021/03/06 10:41:58;;;;;;;10.23;3.00;;;;;;;12.65;30.99;101665.41;4870100;28;98009;-74
2021/03/06 10:44:24;;;;;;;5.03;2.67;;;;;;;12.61;31.04;101669.00;4852251;28;98355;-76
2021/03/06 10:46:59;;;;;;;4.70;2.50;;;;;;;12.02;31.25;101663.16;4866224;28;97588;-74
2021/03/06 10:49:55;;;;;;;6.40;2.65;;;;;;;12.00;31.29;101676.34;4878807;28;96793;-75
2021/03/06 10:52:28;;;;;;;5.95;2.35;;;;;;;12.07;30.64;101666.59;4823293;28;99152;-76
2021/03/06 10:54:58;;;;;;;3.90;2.17;;;;;;;11.99;30.61;101676.41;4852600;28;97964;-74
2021/03/06 10:57:25;;;;;;;7.47;2.85;;;;;;;11.61;30.61;101666.53;4854797;28;97461;-74
2021/03/06 10:59:51;;;;;;;5.13;2.00;;;;;;;10.96;30.63;101664.00;4854220;28;97575;-76
2021/03/06 11:02:31;;;;;;;5.72;2.00;;;;;;;10.79;30.76;101664.22;4886023;28;98522;-74
2021/03/06 11:05:19;;;;;;;3.67;2.03;;;;;;;10.82;31.09;101654.56;4852994;28;101496;-75
2021/03/06 11:07:45;;;;;;;5.32;2.15;;;;;;;11.09;31.41;101655.94;4873566;28;97376;-76
2021/03/06 11:10:12;;;;;;;7.80;2.22;;;;;;;11.06;31.04;101660.38;4839503;28;98599;-76
2021/03/06 11:12:49;;;;;;;8.48;2.30;;;;;;;10.74;30.68;101658.19;4857321;28;99628;-75
2021/03/06 11:15:17;;;;;;;8.00;2.40;;;;;;;10.40;30.65;101648.13;4855662;28;101879;-75
2021/03/06 11:17:45;;;;;;;3.97;2.00;;;;;;;10.43;31.33;101648.94;4851682;28;97214;-76
2021/03/06 11:20:14;;;;;;;6.65;2.40;;;;;;;10.26;31.80;101648.25;4854486;28;96916;-75
2021/03/06 11:22:40;;;;;;;4.57;2.53;;;;;;;10.08;32.05;101641.44;4853322;28;97984;-75
2021/03/06 11:25:07;;;;;;;6.57;2.78;;;;;;;9.81;31.98;101642.63;4855448;28;101531;-81
2021/03/06 11:27:42;;;;;;;3.95;2.25;;;;;;;9.62;32.00;101639.28;4857892;28;97221;-76